CheckWX is a tool to help pilots better visualize weather data.  It is not intended as a substitute for an official pre-flight weather briefing.

03:04:31 UTC

KMFV METAR
Accomack County Airport
Melfa, Virginia, USA
Current

10 mins ago

KMFV 240255Z AUTO 32004KT 10SM CLR 07/M02 A3025 RMK AO2 T00681021
Observed
Mar-24 @ 02:55 UTC
Wind
  • 320° at 4 KTS
Visibility
10 SM
Flight Rules
VFR
Cloud Levels
  • Clear skies
Temperature
C / 45°F
Dewpoint
-2°C / 28°F
Humidity
53%
Altimeter
30.25" Hg
Pressure
1024.42 hPa
Previous

30 mins ago

KMFV 240235Z AUTO 32006KT 10SM CLR 08/M02 A3025 RMK AO2 T00761024
Observed
Mar-24 @ 02:35 UTC
Wind
  • 320° at 6 KTS
Visibility
10 SM
Flight Rules
VFR
Cloud Levels
  • Clear skies
Temperature
C / 46°F
Dewpoint
-2°C / 28°F
Humidity
50%
Altimeter
30.25" Hg
Pressure
1024.42 hPa
Previous

50 mins ago

KMFV 240215Z AUTO 32006KT 10SM CLR 07/M02 A3025 RMK AO2 T00731018
Observed
Mar-24 @ 02:15 UTC
Wind
  • 320° at 6 KTS
Visibility
10 SM
Flight Rules
VFR
Cloud Levels
  • Clear skies
Temperature
C / 45°F
Dewpoint
-2°C / 28°F
Humidity
53%
Altimeter
30.25" Hg
Pressure
1024.42 hPa